Brunswick, GA

5:53 AM EDT on August 28, 2016 (GMT -0400)
Country Walk | | Change Station
Active Advisory: Coastal Hazard Statement

Elev 30 ft 31.27 °N, 81.48 °W | Updated 14 seconds ago

Clear
Clear
74.8 °F
Feels Like 72 °F
N
0.0
Wind Variable Wind from ENE
Gusts 0.0 mph

Today
High -- | Low -- °F
--% Chance of Precip.
Yesterday
High -- | Low -- °F
Precip. -- in
Pressure 30.04 in
Visibility 10.0 miles
Clouds Clear
Heat Index 72 °F
Dew Point 74 °F
Humidity 97%
Rainfall 0.00 in
Snow Depth Not available.
6:59 AM 7:53 PM
Waning Crescent, 17% visible
METAR KBQK 280935Z AUTO 00000KT 10SM CLR 25/23 A3004 RMK AO2
Pressure 30.04 in
Visibility 10.0 miles
Clouds Clear
Heat Index 72 °F
Dew Point 74 °F
Humidity 97%
Rainfall 0.00 in
Snow Depth Not available.
6:59 AM 7:53 PM
Waning Crescent, 17% visible
METAR KBQK 280935Z AUTO 00000KT 10SM CLR 25/23 A3004 RMK AO2

10-Day Weather Forecast

Almanac

Astronomy

Aug. 28, 2016 Rise Set
Actual Time
Civil Twilight
Nautical Twilight
Astronomical Twilight
Moon
Length of Visible Light
Length of Day
Tomorrow will be .
, % of the Moon is Illuminated

Today's Extremes

State Highs State Lows

Community

WunderPhotos

Upload Photos

1,935,540 photos uploaded!

WunderBlog® & News

Nearby

Air Quality

  Air Quality AQ Index Pollutant
Not available.

Snow Depth

Station Depth Elevation

Earthquake Activity

City Distance Mag. Time & Date
Minimum magnitude displayed is 2.5.

Coastal Water Temperatures

Place Temperature

Stations

Nearby Weather Stations

Station Location Temp. Windchill Dew Point Humidity Wind Precip. Elev Updated Type
                   

Watches & Warnings

Coastal Hazard Statement
Issued: 2:30 AM EDT Aug. 28, 2016 – National Weather Service

... High rip current risk in effect through Monday afternoon...

The National Weather Service in Jacksonville has issued a high
rip current risk... which is in effect through Monday afternoon.

* Timing... through 5 PM Monday.

* Impacts... rip currents will be life threatening. Rough surf
near 3 to 4 feet is also expected which can knock you down.
Longshore currents may be strong and push you into rip
currents.

Precautionary/preparedness actions...

There is a high risk of rip currents.

Rip currents will be life threatening.

Rip currents are powerful channels of water flowing quickly away
from shore... which occur most often at low spots or breaks in
The Sandbar and in the vicinity of structures such as groins...
jetties and piers. Heed the advice of lifeguards and the beach
patrol. Pay attention to flags and posted signs.

Swim near a lifeguard. If caught in a rip current remain calm.
Don't fight the current. Swim in a direction following the
shoreline. If unable to escape... face the shore and call or wave
for help. If tired... float or tread water until out of the rip
current.